sensor_id;sensor_type;location;lat;lon;timestamp;P1;durP1;ratioP1;P2;durP2;ratioP2
20589;SDS011;10453;50.810;12.540;2023-08-01T00:00:49;0.00;;;0.00;;
20589;SDS011;10453;50.810;12.540;2023-08-01T00:05:07;0.00;;;0.00;;
20589;SDS011;10453;50.810;12.540;2023-08-01T00:09:24;5.32;;;4.82;;
20589;SDS011;10453;50.810;12.540;2023-08-01T00:13:41;4.03;;;3.38;;
20589;SDS011;10453;50.810;12.540;2023-08-01T00:17:59;0.00;;;0.00;;
20589;SDS011;10453;50.810;12.540;2023-08-01T00:22:17;0.40;;;0.40;;
20589;SDS011;10453;50.810;12.540;2023-08-01T00:26:34;5.47;;;5.00;;
20589;SDS011;10453;50.810;12.540;2023-08-01T00:31:01;0.00;;;0.00;;
20589;SDS011;10453;50.810;12.540;2023-08-01T00:35:19;0.00;;;0.00;;
20589;SDS011;10453;50.810;12.540;2023-08-01T00:39:36;0.43;;;0.35;;
20589;SDS011;10453;50.810;12.540;2023-08-01T00:43:53;7.22;;;6.78;;
20589;SDS011;10453;50.810;12.540;2023-08-01T00:48:11;14.18;;;9.35;;
20589;SDS011;10453;50.810;12.540;2023-08-01T00:52:28;0.73;;;0.73;;
20589;SDS011;10453;50.810;12.540;2023-08-01T00:56:46;195.15;;;128.13;;
20589;SDS011;10453;50.810;12.540;2023-08-01T01:01:03;1999.90;;;999.90;;
20589;SDS011;10453;50.810;12.540;2023-08-01T01:05:21;1999.90;;;999.90;;
20589;SDS011;10453;50.810;12.540;2023-08-01T01:09:41;1999.90;;;999.90;;
20589;SDS011;10453;50.810;12.540;2023-08-01T01:13:58;1999.90;;;999.90;;
20589;SDS011;10453;50.810;12.540;2023-08-01T01:18:15;1999.90;;;999.90;;
20589;SDS011;10453;50.810;12.540;2023-08-01T01:22:33;1999.90;;;999.90;;
20589;SDS011;10453;50.810;12.540;2023-08-01T01:26:51;1999.90;;;999.90;;
20589;SDS011;10453;50.810;12.540;2023-08-01T01:31:10;1999.90;;;999.90;;
20589;SDS011;10453;50.810;12.540;2023-08-01T01:35:27;1999.90;;;999.90;;
20589;SDS011;10453;50.810;12.540;2023-08-01T01:39:44;1999.90;;;999.90;;
20589;SDS011;10453;50.810;12.540;2023-08-01T01:44:02;1999.90;;;999.90;;
20589;SDS011;10453;50.810;12.540;2023-08-01T01:48:19;1999.90;;;999.90;;
20589;SDS011;10453;50.810;12.540;2023-08-01T01:52:36;1999.90;;;999.90;;
20589;SDS011;10453;50.810;12.540;2023-08-01T01:56:53;1999.90;;;999.90;;
20589;SDS011;10453;50.810;12.540;2023-08-01T02:01:11;1999.90;;;999.90;;
20589;SDS011;10453;50.810;12.540;2023-08-01T02:05:28;1999.90;;;999.90;;
20589;SDS011;10453;50.810;12.540;2023-08-01T02:09:46;1999.90;;;999.90;;
20589;SDS011;10453;50.810;12.540;2023-08-01T02:14:03;123.38;;;59.85;;
20589;SDS011;10453;50.810;12.540;2023-08-01T02:18:20;129.85;;;109.25;;
20589;SDS011;10453;50.810;12.540;2023-08-01T02:22:38;1999.90;;;999.90;;
20589;SDS011;10453;50.810;12.540;2023-08-01T02:26:55;1999.90;;;999.90;;
20589;SDS011;10453;50.810;12.540;2023-08-01T02:31:12;1999.90;;;999.90;;
20589;SDS011;10453;50.810;12.540;2023-08-01T02:35:29;1999.90;;;999.90;;
20589;SDS011;10453;50.810;12.540;2023-08-01T02:39:47;1999.90;;;999.90;;
20589;SDS011;10453;50.810;12.540;2023-08-01T02:44:04;1999.90;;;999.90;;
20589;SDS011;10453;50.810;12.540;2023-08-01T02:48:21;1999.90;;;999.90;;
20589;SDS011;10453;50.810;12.540;2023-08-01T02:52:39;1999.90;;;999.90;;
20589;SDS011;10453;50.810;12.540;2023-08-01T02:56:56;1999.90;;;999.90;;
20589;SDS011;10453;50.810;12.540;2023-08-01T03:01:13;1999.90;;;999.90;;
20589;SDS011;10453;50.810;12.540;2023-08-01T03:05:31;1999.90;;;999.90;;
20589;SDS011;10453;50.810;12.540;2023-08-01T03:09:48;1999.90;;;999.90;;
20589;SDS011;10453;50.810;12.540;2023-08-01T03:14:05;1999.90;;;999.90;;
20589;SDS011;10453;50.810;12.540;2023-08-01T03:18:23;1999.90;;;999.90;;
20589;SDS011;10453;50.810;12.540;2023-08-01T03:22:40;1999.90;;;999.90;;
20589;SDS011;10453;50.810;12.540;2023-08-01T03:26:58;1999.90;;;999.90;;
20589;SDS011;10453;50.810;12.540;2023-08-01T03:31:15;1999.90;;;999.90;;
20589;SDS011;10453;50.810;12.540;2023-08-01T03:35:32;1999.90;;;999.90;;
20589;SDS011;10453;50.810;12.540;2023-08-01T03:39:49;966.67;;;436.58;;
20589;SDS011;10453;50.810;12.540;2023-08-01T03:44:07;1999.90;;;999.90;;
20589;SDS011;10453;50.810;12.540;2023-08-01T03:48:24;1999.90;;;999.90;;
20589;SDS011;10453;50.810;12.540;2023-08-01T03:52:41;1999.90;;;999.90;;
20589;SDS011;10453;50.810;12.540;2023-08-01T03:56:58;1999.90;;;999.90;;
20589;SDS011;10453;50.810;12.540;2023-08-01T04:01:16;1999.90;;;999.90;;
20589;SDS011;10453;50.810;12.540;2023-08-01T04:05:33;1999.90;;;999.90;;
20589;SDS011;10453;50.810;12.540;2023-08-01T04:09:50;1999.90;;;999.90;;
20589;SDS011;10453;50.810;12.540;2023-08-01T04:14:07;1999.90;;;999.90;;
20589;SDS011;10453;50.810;12.540;2023-08-01T04:18:25;1999.90;;;999.90;;
20589;SDS011;10453;50.810;12.540;2023-08-01T04:22:42;1999.90;;;999.90;;
20589;SDS011;10453;50.810;12.540;2023-08-01T04:26:59;1999.90;;;999.90;;
20589;SDS011;10453;50.810;12.540;2023-08-01T04:31:16;1999.90;;;999.90;;
20589;SDS011;10453;50.810;12.540;2023-08-01T04:35:33;1999.90;;;999.90;;
20589;SDS011;10453;50.810;12.540;2023-08-01T04:39:51;1999.90;;;999.90;;
20589;SDS011;10453;50.810;12.540;2023-08-01T04:44:08;1999.90;;;999.90;;
20589;SDS011;10453;50.810;12.540;2023-08-01T04:48:25;1999.90;;;999.90;;
20589;SDS011;10453;50.810;12.540;2023-08-01T04:52:42;1999.90;;;999.90;;
20589;SDS011;10453;50.810;12.540;2023-08-01T04:56:59;1999.90;;;999.90;;
20589;SDS011;10453;50.810;12.540;2023-08-01T05:01:17;1999.90;;;999.90;;
20589;SDS011;10453;50.810;12.540;2023-08-01T05:05:34;1999.90;;;999.90;;
20589;SDS011;10453;50.810;12.540;2023-08-01T05:09:51;1999.90;;;999.90;;
20589;SDS011;10453;50.810;12.540;2023-08-01T05:14:09;1999.90;;;999.90;;
20589;SDS011;10453;50.810;12.540;2023-08-01T05:18:26;1999.90;;;999.90;;
20589;SDS011;10453;50.810;12.540;2023-08-01T05:22:43;65.72;;;58.28;;
20589;SDS011;10453;50.810;12.540;2023-08-01T05:27:00;1999.90;;;999.90;;
20589;SDS011;10453;50.810;12.540;2023-08-01T05:31:17;32.22;;;30.48;;
20589;SDS011;10453;50.810;12.540;2023-08-01T05:35:35;34.72;;;31.88;;
20589;SDS011;10453;50.810;12.540;2023-08-01T05:39:52;1999.90;;;999.90;;
20589;SDS011;10453;50.810;12.540;2023-08-01T05:44:09;15.45;;;14.75;;
20589;SDS011;10453;50.810;12.540;2023-08-01T05:48:26;18.65;;;16.50;;
20589;SDS011;10453;50.810;12.540;2023-08-01T05:52:44;1999.90;;;999.90;;
20589;SDS011;10453;50.810;12.540;2023-08-01T05:57:01;129.52;;;84.15;;
20589;SDS011;10453;50.810;12.540;2023-08-01T06:01:18;20.17;;;8.77;;
20589;SDS011;10453;50.810;12.540;2023-08-01T06:05:36;16.33;;;8.70;;
20589;SDS011;10453;50.810;12.540;2023-08-01T06:09:54;16.77;;;11.63;;
20589;SDS011;10453;50.810;12.540;2023-08-01T06:14:12;1.25;;;1.25;;
20589;SDS011;10453;50.810;12.540;2023-08-01T06:18:29;0.70;;;0.70;;
20589;SDS011;10453;50.810;12.540;2023-08-01T06:22:47;0.40;;;0.40;;
20589;SDS011;10453;50.810;12.540;2023-08-01T06:27:05;0.47;;;0.47;;
20589;SDS011;10453;50.810;12.540;2023-08-01T06:31:22;0.40;;;0.40;;
20589;SDS011;10453;50.810;12.540;2023-08-01T06:35:39;0.50;;;0.50;;
20589;SDS011;10453;50.810;12.540;2023-08-01T06:39:57;14.25;;;3.00;;
20589;SDS011;10453;50.810;12.540;2023-08-01T06:44:16;0.80;;;0.80;;
20589;SDS011;10453;50.810;12.540;2023-08-01T06:48:33;0.50;;;0.50;;
20589;SDS011;10453;50.810;12.540;2023-08-01T06:52:53;0.80;;;0.80;;
20589;SDS011;10453;50.810;12.540;2023-08-01T06:57:10;0.60;;;0.60;;
20589;SDS011;10453;50.810;12.540;2023-08-01T07:01:28;37.80;;;8.80;;
20589;SDS011;10453;50.810;12.540;2023-08-01T07:05:45;0.40;;;0.40;;
20589;SDS011;10453;50.810;12.540;2023-08-01T07:10:02;0.40;;;0.40;;
20589;SDS011;10453;50.810;12.540;2023-08-01T07:14:20;0.40;;;0.40;;
20589;SDS011;10453;50.810;12.540;2023-08-01T07:18:37;97.55;;;88.22;;
20589;SDS011;10453;50.810;12.540;2023-08-01T07:22:54;23.65;;;7.72;;
20589;SDS011;10453;50.810;12.540;2023-08-01T07:27:12;525.10;;;394.80;;
20589;SDS011;10453;50.810;12.540;2023-08-01T07:31:29;1999.90;;;999.90;;
20589;SDS011;10453;50.810;12.540;2023-08-01T07:35:46;1999.90;;;999.90;;
20589;SDS011;10453;50.810;12.540;2023-08-01T07:40:06;1999.90;;;999.90;;
20589;SDS011;10453;50.810;12.540;2023-08-01T07:44:24;1999.90;;;999.90;;
20589;SDS011;10453;50.810;12.540;2023-08-01T07:48:41;1192.72;;;616.05;;
20589;SDS011;10453;50.810;12.540;2023-08-01T07:52:59;1999.90;;;999.90;;
20589;SDS011;10453;50.810;12.540;2023-08-01T07:57:16;1999.90;;;999.90;;
20589;SDS011;10453;50.810;12.540;2023-08-01T08:01:33;210.52;;;133.60;;
20589;SDS011;10453;50.810;12.540;2023-08-01T08:05:51;1.00;;;1.00;;
20589;SDS011;10453;50.810;12.540;2023-08-01T08:10:08;0.50;;;0.50;;
20589;SDS011;10453;50.810;12.540;2023-08-01T08:14:25;1.30;;;1.30;;
20589;SDS011;10453;50.810;12.540;2023-08-01T08:18:43;28.05;;;2.42;;
20589;SDS011;10453;50.810;12.540;2023-08-01T08:23:00;0.70;;;0.70;;
20589;SDS011;10453;50.810;12.540;2023-08-01T08:27:17;1.23;;;1.23;;
20589;SDS011;10453;50.810;12.540;2023-08-01T08:31:35;1.88;;;1.88;;
20589;SDS011;10453;50.810;12.540;2023-08-01T08:35:52;1.38;;;1.38;;
20589;SDS011;10453;50.810;12.540;2023-08-01T08:40:10;1.42;;;1.42;;
20589;SDS011;10453;50.810;12.540;2023-08-01T08:44:29;0.95;;;0.95;;
20589;SDS011;10453;50.810;12.540;2023-08-01T08:48:47;2.78;;;2.67;;
20589;SDS011;10453;50.810;12.540;2023-08-01T08:53:05;127.88;;;59.50;;
20589;SDS011;10453;50.810;12.540;2023-08-01T08:57:29;1.23;;;1.23;;
20589;SDS011;10453;50.810;12.540;2023-08-01T09:01:46;5.00;;;4.80;;
20589;SDS011;10453;50.810;12.540;2023-08-01T09:06:06;1.80;;;1.80;;
20589;SDS011;10453;50.810;12.540;2023-08-01T09:10:26;1.88;;;1.88;;
20589;SDS011;10453;50.810;12.540;2023-08-01T09:14:43;4.28;;;4.18;;
20589;SDS011;10453;50.810;12.540;2023-08-01T09:19:01;2.50;;;2.40;;
20589;SDS011;10453;50.810;12.540;2023-08-01T09:23:19;4.00;;;3.90;;
20589;SDS011;10453;50.810;12.540;2023-08-01T09:27:36;3.03;;;2.92;;
20589;SDS011;10453;50.810;12.540;2023-08-01T09:31:54;3.30;;;3.20;;
20589;SDS011;10453;50.810;12.540;2023-08-01T09:36:11;13.65;;;10.13;;
20589;SDS011;10453;50.810;12.540;2023-08-01T09:40:38;9.07;;;8.40;;
20589;SDS011;10453;50.810;12.540;2023-08-01T09:44:56;4.43;;;4.28;;
20589;SDS011;10453;50.810;12.540;2023-08-01T09:49:13;5.25;;;4.97;;
20589;SDS011;10453;50.810;12.540;2023-08-01T09:53:32;4.70;;;4.50;;
20589;SDS011;10453;50.810;12.540;2023-08-01T09:57:49;3.92;;;3.83;;
20589;SDS011;10453;50.810;12.540;2023-08-01T10:02:08;8.80;;;8.40;;
20589;SDS011;10453;50.810;12.540;2023-08-01T10:06:33;10.40;;;10.00;;
20589;SDS011;10453;50.810;12.540;2023-08-01T10:10:53;7.18;;;6.68;;
20589;SDS011;10453;50.810;12.540;2023-08-01T10:15:14;6.45;;;6.13;;
20589;SDS011;10453;50.810;12.540;2023-08-01T10:23:49;3.70;;;3.60;;
20589;SDS011;10453;50.810;12.540;2023-08-01T10:28:07;5.65;;;5.07;;
20589;SDS011;10453;50.810;12.540;2023-08-01T10:32:35;11.93;;;10.77;;
20589;SDS011;10453;50.810;12.540;2023-08-01T10:36:54;0.70;;;0.70;;
20589;SDS011;10453;50.810;12.540;2023-08-01T10:41:22;1.75;;;1.67;;
20589;SDS011;10453;50.810;12.540;2023-08-01T10:45:43;2.55;;;2.45;;
20589;SDS011;10453;50.810;12.540;2023-08-01T10:50:01;0.70;;;0.70;;
20589;SDS011;10453;50.810;12.540;2023-08-01T10:54:19;1.80;;;1.65;;
20589;SDS011;10453;50.810;12.540;2023-08-01T10:58:40;16.90;;;8.40;;
20589;SDS011;10453;50.810;12.540;2023-08-01T11:02:57;1090.60;;;583.03;;
20589;SDS011;10453;50.810;12.540;2023-08-01T11:07:14;1999.90;;;999.90;;
20589;SDS011;10453;50.810;12.540;2023-08-01T11:11:32;1999.90;;;999.90;;
20589;SDS011;10453;50.810;12.540;2023-08-01T11:15:49;1999.90;;;999.90;;
20589;SDS011;10453;50.810;12.540;2023-08-01T11:20:07;1999.90;;;999.90;;
20589;SDS011;10453;50.810;12.540;2023-08-01T11:24:27;1999.90;;;999.90;;
20589;SDS011;10453;50.810;12.540;2023-08-01T11:28:44;1999.90;;;999.90;;
20589;SDS011;10453;50.810;12.540;2023-08-01T11:33:17;1999.90;;;999.90;;
20589;SDS011;10453;50.810;12.540;2023-08-01T11:37:37;1999.90;;;999.90;;
20589;SDS011;10453;50.810;12.540;2023-08-01T11:41:54;1999.90;;;999.90;;
20589;SDS011;10453;50.810;12.540;2023-08-01T11:46:13;1999.90;;;999.90;;
20589;SDS011;10453;50.810;12.540;2023-08-01T11:50:30;1999.90;;;999.90;;
20589;SDS011;10453;50.810;12.540;2023-08-01T11:54:48;1999.90;;;999.90;;
20589;SDS011;10453;50.810;12.540;2023-08-01T11:59:11;1999.90;;;999.90;;
20589;SDS011;10453;50.810;12.540;2023-08-01T12:03:30;1999.90;;;999.90;;
20589;SDS011;10453;50.810;12.540;2023-08-01T12:07:47;1999.90;;;999.90;;
20589;SDS011;10453;50.810;12.540;2023-08-01T12:12:05;1999.90;;;999.90;;
20589;SDS011;10453;50.810;12.540;2023-08-01T12:16:23;1999.90;;;999.90;;
20589;SDS011;10453;50.810;12.540;2023-08-01T12:20:40;1999.90;;;999.90;;
20589;SDS011;10453;50.810;12.540;2023-08-01T12:24:58;17.77;;;16.58;;
20589;SDS011;10453;50.810;12.540;2023-08-01T12:29:15;8.82;;;8.32;;
20589;SDS011;10453;50.810;12.540;2023-08-01T12:33:32;5.80;;;5.47;;
20589;SDS011;10453;50.810;12.540;2023-08-01T12:37:51;8.98;;;8.30;;
20589;SDS011;10453;50.810;12.540;2023-08-01T12:42:09;5.70;;;5.50;;
20589;SDS011;10453;50.810;12.540;2023-08-01T12:46:26;4.85;;;4.63;;
20589;SDS011;10453;50.810;12.540;2023-08-01T12:50:46;14.73;;;14.13;;
20589;SDS011;10453;50.810;12.540;2023-08-01T12:55:06;14.30;;;13.70;;
20589;SDS011;10453;50.810;12.540;2023-08-01T12:59:24;8.53;;;8.17;;
20589;SDS011;10453;50.810;12.540;2023-08-01T13:08:20;22.38;;;20.80;;
20589;SDS011;10453;50.810;12.540;2023-08-01T13:12:37;5.80;;;5.60;;
20589;SDS011;10453;50.810;12.540;2023-08-01T13:16:55;30.40;;;28.73;;
20589;SDS011;10453;50.810;12.540;2023-08-01T13:25:58;518.15;;;267.33;;
20589;SDS011;10453;50.810;12.540;2023-08-01T13:30:18;1999.90;;;999.90;;
20589;SDS011;10453;50.810;12.540;2023-08-01T13:34:36;671.50;;;337.97;;
20589;SDS011;10453;50.810;12.540;2023-08-01T13:38:53;1999.90;;;999.90;;
20589;SDS011;10453;50.810;12.540;2023-08-01T13:43:11;1999.90;;;999.90;;
20589;SDS011;10453;50.810;12.540;2023-08-01T13:47:28;3.55;;;3.45;;
20589;SDS011;10453;50.810;12.540;2023-08-01T13:51:45;1999.90;;;999.90;;
20589;SDS011;10453;50.810;12.540;2023-08-01T13:56:03;1999.90;;;999.90;;
20589;SDS011;10453;50.810;12.540;2023-08-01T14:00:20;1999.90;;;999.90;;
20589;SDS011;10453;50.810;12.540;2023-08-01T14:04:37;1999.90;;;999.90;;
20589;SDS011;10453;50.810;12.540;2023-08-01T14:08:55;19.73;;;18.73;;
20589;SDS011;10453;50.810;12.540;2023-08-01T14:13:12;10.48;;;10.07;;
20589;SDS011;10453;50.810;12.540;2023-08-01T14:17:29;23.77;;;22.70;;
20589;SDS011;10453;50.810;12.540;2023-08-01T14:21:47;40.97;;;24.25;;
20589;SDS011;10453;50.810;12.540;2023-08-01T14:26:04;17.67;;;16.90;;
20589;SDS011;10453;50.810;12.540;2023-08-01T14:30:21;33.42;;;31.50;;
20589;SDS011;10453;50.810;12.540;2023-08-01T14:34:38;12.75;;;12.25;;
20589;SDS011;10453;50.810;12.540;2023-08-01T14:38:55;119.50;;;110.53;;
20589;SDS011;10453;50.810;12.540;2023-08-01T14:43:22;4.47;;;4.30;;
20589;SDS011;10453;50.810;12.540;2023-08-01T14:47:42;2.90;;;2.80;;
20589;SDS011;10453;50.810;12.540;2023-08-01T14:52:00;2.30;;;2.20;;
20589;SDS011;10453;50.810;12.540;2023-08-01T14:56:17;4.75;;;4.55;;
20589;SDS011;10453;50.810;12.540;2023-08-01T15:00:35;1999.90;;;999.90;;
20589;SDS011;10453;50.810;12.540;2023-08-01T15:04:53;10.85;;;10.45;;
20589;SDS011;10453;50.810;12.540;2023-08-01T15:09:12;1999.90;;;999.90;;
20589;SDS011;10453;50.810;12.540;2023-08-01T15:13:29;1999.90;;;999.90;;
20589;SDS011;10453;50.810;12.540;2023-08-01T15:17:51;1999.90;;;999.90;;
20589;SDS011;10453;50.810;12.540;2023-08-01T15:22:08;1999.90;;;999.90;;
20589;SDS011;10453;50.810;12.540;2023-08-01T15:26:26;1999.90;;;999.90;;
20589;SDS011;10453;50.810;12.540;2023-08-01T15:30:43;1999.90;;;999.90;;
20589;SDS011;10453;50.810;12.540;2023-08-01T15:35:01;15.05;;;14.35;;
20589;SDS011;10453;50.810;12.540;2023-08-01T15:39:18;22.73;;;21.73;;
20589;SDS011;10453;50.810;12.540;2023-08-01T15:43:36;47.28;;;43.42;;
20589;SDS011;10453;50.810;12.540;2023-08-01T15:47:57;31.20;;;28.75;;
20589;SDS011;10453;50.810;12.540;2023-08-01T15:52:14;1999.90;;;999.90;;
20589;SDS011;10453;50.810;12.540;2023-08-01T15:56:32;42.22;;;40.25;;
20589;SDS011;10453;50.810;12.540;2023-08-01T16:00:49;1999.90;;;999.90;;
20589;SDS011;10453;50.810;12.540;2023-08-01T16:05:06;49.08;;;46.55;;
20589;SDS011;10453;50.810;12.540;2023-08-01T16:09:24;30.55;;;28.80;;
20589;SDS011;10453;50.810;12.540;2023-08-01T16:13:41;35.33;;;33.35;;
20589;SDS011;10453;50.810;12.540;2023-08-01T16:17:59;1999.90;;;999.90;;
20589;SDS011;10453;50.810;12.540;2023-08-01T16:22:16;33.45;;;30.38;;
20589;SDS011;10453;50.810;12.540;2023-08-01T16:26:33;27.08;;;25.88;;
20589;SDS011;10453;50.810;12.540;2023-08-01T16:30:51;30.13;;;28.77;;
20589;SDS011;10453;50.810;12.540;2023-08-01T16:35:08;28.40;;;27.10;;
20589;SDS011;10453;50.810;12.540;2023-08-01T16:39:26;22.88;;;21.77;;
20589;SDS011;10453;50.810;12.540;2023-08-01T16:43:43;20.63;;;19.73;;
20589;SDS011;10453;50.810;12.540;2023-08-01T16:48:01;32.22;;;30.75;;
20589;SDS011;10453;50.810;12.540;2023-08-01T16:52:19;33.40;;;31.77;;
20589;SDS011;10453;50.810;12.540;2023-08-01T16:56:36;35.85;;;33.60;;
20589;SDS011;10453;50.810;12.540;2023-08-01T17:00:54;22.90;;;21.00;;
20589;SDS011;10453;50.810;12.540;2023-08-01T17:05:11;15.65;;;14.98;;
20589;SDS011;10453;50.810;12.540;2023-08-01T17:09:30;49.97;;;24.73;;
20589;SDS011;10453;50.810;12.540;2023-08-01T17:13:47;17.27;;;16.48;;
20589;SDS011;10453;50.810;12.540;2023-08-01T17:18:05;10.77;;;10.35;;
20589;SDS011;10453;50.810;12.540;2023-08-01T17:22:22;24.90;;;22.92;;
20589;SDS011;10453;50.810;12.540;2023-08-01T17:26:41;19.17;;;18.38;;
20589;SDS011;10453;50.810;12.540;2023-08-01T17:31:02;1023.65;;;522.58;;
20589;SDS011;10453;50.810;12.540;2023-08-01T17:35:21;1999.90;;;999.90;;
20589;SDS011;10453;50.810;12.540;2023-08-01T17:39:38;1999.90;;;999.90;;
20589;SDS011;10453;50.810;12.540;2023-08-01T17:43:59;1999.90;;;999.90;;
20589;SDS011;10453;50.810;12.540;2023-08-01T17:48:21;1999.90;;;999.90;;
20589;SDS011;10453;50.810;12.540;2023-08-01T17:52:39;1999.90;;;999.90;;
20589;SDS011;10453;50.810;12.540;2023-08-01T17:56:57;1999.90;;;999.90;;
20589;SDS011;10453;50.810;12.540;2023-08-01T18:01:15;1999.90;;;999.90;;
20589;SDS011;10453;50.810;12.540;2023-08-01T18:05:33;1999.90;;;999.90;;
20589;SDS011;10453;50.810;12.540;2023-08-01T18:09:50;1999.90;;;999.90;;
20589;SDS011;10453;50.810;12.540;2023-08-01T18:14:08;1999.90;;;999.90;;
20589;SDS011;10453;50.810;12.540;2023-08-01T18:18:27;1999.90;;;999.90;;
20589;SDS011;10453;50.810;12.540;2023-08-01T18:22:44;1535.07;;;759.70;;
20589;SDS011;10453;50.810;12.540;2023-08-01T18:27:02;1999.90;;;999.90;;
20589;SDS011;10453;50.810;12.540;2023-08-01T18:31:20;1999.90;;;999.90;;
20589;SDS011;10453;50.810;12.540;2023-08-01T18:35:41;1999.90;;;999.90;;
20589;SDS011;10453;50.810;12.540;2023-08-01T18:40:00;1999.90;;;999.90;;
20589;SDS011;10453;50.810;12.540;2023-08-01T18:44:18;1999.90;;;999.90;;
20589;SDS011;10453;50.810;12.540;2023-08-01T18:48:35;116.07;;;88.43;;
20589;SDS011;10453;50.810;12.540;2023-08-01T18:52:53;8.10;;;3.60;;
20589;SDS011;10453;50.810;12.540;2023-08-01T18:57:10;8.73;;;2.58;;
20589;SDS011;10453;50.810;12.540;2023-08-01T19:01:28;4.50;;;1.90;;
20589;SDS011;10453;50.810;12.540;2023-08-01T19:05:45;10.30;;;2.92;;
20589;SDS011;10453;50.810;12.540;2023-08-01T19:10:03;6.68;;;3.25;;
20589;SDS011;10453;50.810;12.540;2023-08-01T19:18:40;7.35;;;3.65;;
20589;SDS011;10453;50.810;12.540;2023-08-01T19:22:58;10.13;;;5.63;;
20589;SDS011;10453;50.810;12.540;2023-08-01T19:27:15;5.80;;;4.30;;
20589;SDS011;10453;50.810;12.540;2023-08-01T19:31:33;10.50;;;4.57;;
20589;SDS011;10453;50.810;12.540;2023-08-01T19:35:50;3.08;;;1.70;;
20589;SDS011;10453;50.810;12.540;2023-08-01T19:40:08;4.00;;;2.40;;
20589;SDS011;10453;50.810;12.540;2023-08-01T19:44:26;6.10;;;2.20;;
20589;SDS011;10453;50.810;12.540;2023-08-01T19:48:44;10.98;;;4.07;;
20589;SDS011;10453;50.810;12.540;2023-08-01T19:53:05;7.93;;;4.10;;
20589;SDS011;10453;50.810;12.540;2023-08-01T19:57:23;5.40;;;3.13;;
20589;SDS011;10453;50.810;12.540;2023-08-01T20:01:41;4.28;;;2.58;;
20589;SDS011;10453;50.810;12.540;2023-08-01T20:05:59;4.65;;;2.70;;
20589;SDS011;10453;50.810;12.540;2023-08-01T20:10:17;471.48;;;128.90;;
20589;SDS011;10453;50.810;12.540;2023-08-01T20:14:35;7.50;;;6.80;;
20589;SDS011;10453;50.810;12.540;2023-08-01T20:18:53;9.70;;;8.98;;
20589;SDS011;10453;50.810;12.540;2023-08-01T20:23:10;21.98;;;20.52;;
20589;SDS011;10453;50.810;12.540;2023-08-01T20:27:27;2.58;;;2.47;;
20589;SDS011;10453;50.810;12.540;2023-08-01T20:31:45;0.95;;;0.47;;
20589;SDS011;10453;50.810;12.540;2023-08-01T20:36:03;12.88;;;7.57;;
20589;SDS011;10453;50.810;12.540;2023-08-01T20:40:20;240.20;;;66.05;;
20589;SDS011;10453;50.810;12.540;2023-08-01T20:44:38;2.90;;;2.47;;
20589;SDS011;10453;50.810;12.540;2023-08-01T20:48:56;13.48;;;6.72;;
20589;SDS011;10453;50.810;12.540;2023-08-01T20:53:13;0.00;;;0.00;;
20589;SDS011;10453;50.810;12.540;2023-08-01T20:57:31;10.65;;;7.40;;
20589;SDS011;10453;50.810;12.540;2023-08-01T21:01:49;11.95;;;3.70;;
20589;SDS011;10453;50.810;12.540;2023-08-01T21:06:11;8.80;;;3.70;;
20589;SDS011;10453;50.810;12.540;2023-08-01T21:10:30;7.40;;;3.00;;
20589;SDS011;10453;50.810;12.540;2023-08-01T21:14:51;0.10;;;0.03;;
20589;SDS011;10453;50.810;12.540;2023-08-01T21:19:09;6.43;;;3.17;;
20589;SDS011;10453;50.810;12.540;2023-08-01T21:23:26;12.63;;;10.25;;
20589;SDS011;10453;50.810;12.540;2023-08-01T21:27:43;7.43;;;3.58;;
20589;SDS011;10453;50.810;12.540;2023-08-01T21:32:01;0.00;;;0.00;;
20589;SDS011;10453;50.810;12.540;2023-08-01T21:36:18;5.40;;;2.28;;
20589;SDS011;10453;50.810;12.540;2023-08-01T21:40:36;3.65;;;2.35;;
20589;SDS011;10453;50.810;12.540;2023-08-01T21:44:53;2.77;;;1.60;;
20589;SDS011;10453;50.810;12.540;2023-08-01T21:49:11;0.00;;;0.00;;
20589;SDS011;10453;50.810;12.540;2023-08-01T21:53:28;0.00;;;0.00;;
20589;SDS011;10453;50.810;12.540;2023-08-01T21:57:45;5.72;;;2.65;;
20589;SDS011;10453;50.810;12.540;2023-08-01T22:02:03;1507.45;;;756.88;;
20589;SDS011;10453;50.810;12.540;2023-08-01T22:06:20;6.30;;;2.45;;
20589;SDS011;10453;50.810;12.540;2023-08-01T22:10:38;7.93;;;2.30;;
20589;SDS011;10453;50.810;12.540;2023-08-01T22:14:55;7.90;;;2.80;;
20589;SDS011;10453;50.810;12.540;2023-08-01T22:19:12;8.55;;;2.42;;
20589;SDS011;10453;50.810;12.540;2023-08-01T22:23:30;5.03;;;2.75;;
20589;SDS011;10453;50.810;12.540;2023-08-01T22:27:47;8.25;;;2.90;;
20589;SDS011;10453;50.810;12.540;2023-08-01T22:32:04;7.47;;;2.90;;
20589;SDS011;10453;50.810;12.540;2023-08-01T22:36:22;5.63;;;2.28;;
20589;SDS011;10453;50.810;12.540;2023-08-01T22:40:39;3.08;;;2.10;;
20589;SDS011;10453;50.810;12.540;2023-08-01T22:44:56;6.03;;;2.30;;
20589;SDS011;10453;50.810;12.540;2023-08-01T22:49:15;6.55;;;2.30;;
20589;SDS011;10453;50.810;12.540;2023-08-01T22:53:32;3.92;;;2.25;;
20589;SDS011;10453;50.810;12.540;2023-08-01T22:57:50;4.43;;;2.35;;
20589;SDS011;10453;50.810;12.540;2023-08-01T23:02:08;4.13;;;2.38;;
20589;SDS011;10453;50.810;12.540;2023-08-01T23:06:25;4.60;;;2.22;;
20589;SDS011;10453;50.810;12.540;2023-08-01T23:10:43;7.13;;;2.63;;
20589;SDS011;10453;50.810;12.540;2023-08-01T23:15:00;4.93;;;3.00;;
20589;SDS011;10453;50.810;12.540;2023-08-01T23:19:18;6.27;;;2.80;;
20589;SDS011;10453;50.810;12.540;2023-08-01T23:23:36;4.22;;;2.83;;
20589;SDS011;10453;50.810;12.540;2023-08-01T23:27:53;5.78;;;2.38;;
20589;SDS011;10453;50.810;12.540;2023-08-01T23:32:10;6.10;;;2.63;;
20589;SDS011;10453;50.810;12.540;2023-08-01T23:36:28;5.20;;;2.70;;
20589;SDS011;10453;50.810;12.540;2023-08-01T23:40:45;4.80;;;2.78;;
20589;SDS011;10453;50.810;12.540;2023-08-01T23:45:03;4.78;;;2.60;;
20589;SDS011;10453;50.810;12.540;2023-08-01T23:49:20;9.93;;;2.92;;
20589;SDS011;10453;50.810;12.540;2023-08-01T23:53:37;5.53;;;3.33;;
20589;SDS011;10453;50.810;12.540;2023-08-01T23:57:55;8.88;;;2.60;;
